createdAt,value
2022-10-03T00:02:52.921Z,7.83
2022-10-03T00:05:56.233Z,8.10
2022-10-03T00:08:43.880Z,8.70
2022-10-03T00:11:24.694Z,7.53
2022-10-03T00:14:00.511Z,6.30
2022-10-03T00:16:54.708Z,6.97
2022-10-03T00:19:43.187Z,5.73
2022-10-03T00:22:28.493Z,5.93
2022-10-03T00:25:32.497Z,6.27
2022-10-03T00:28:28.698Z,5.70
2022-10-03T00:31:01.935Z,6.10
2022-10-03T00:34:16.932Z,6.33
2022-10-03T00:37:05.485Z,5.13
2022-10-03T00:39:45.600Z,5.13
2022-10-03T00:42:17.927Z,4.23
2022-10-03T00:45:29.805Z,4.03
2022-10-03T00:48:28.903Z,3.90
2022-10-03T00:51:10.721Z,4.07
2022-10-03T00:53:58.745Z,3.73
2022-10-03T00:56:57.225Z,4.07
2022-10-03T00:59:39.405Z,4.60
2022-10-03T01:02:47.552Z,4.13
2022-10-03T01:05:17.169Z,4.43
2022-10-03T01:08:10.422Z,4.97
2022-10-03T01:10:44.596Z,4.50
2022-10-03T01:13:35.412Z,4.23
2022-10-03T01:16:26.920Z,4.70
2022-10-03T01:19:05.878Z,4.33
2022-10-03T01:21:44.030Z,4.30
2022-10-03T01:24:22.851Z,3.10
2022-10-03T01:26:58.140Z,4.10
2022-10-03T01:30:02.465Z,3.53
2022-10-03T01:32:33.160Z,4.60
2022-10-03T01:35:10.175Z,3.73
2022-10-03T01:37:51.238Z,2.87
2022-10-03T01:40:35.833Z,4.17
2022-10-03T01:43:20.100Z,4.40
2022-10-03T01:46:07.134Z,3.70
2022-10-03T01:49:01.391Z,3.70
2022-10-03T01:51:47.317Z,4.43
2022-10-03T01:54:21.725Z,3.30
2022-10-03T01:57:01.571Z,4.23
2022-10-03T01:59:50.204Z,4.80
2022-10-03T02:02:39.898Z,4.23
2022-10-03T02:05:15.164Z,3.60
2022-10-03T02:07:55.218Z,3.03
2022-10-03T02:10:45.659Z,3.10
2022-10-03T02:13:15.115Z,2.80
2022-10-03T02:15:54.495Z,2.73
2022-10-03T02:18:29.350Z,2.73
2022-10-03T02:21:13.986Z,2.70
2022-10-03T02:23:45.248Z,2.80
2022-10-03T02:26:46.249Z,3.43
2022-10-03T02:29:37.441Z,3.30
2022-10-03T02:32:38.952Z,3.43
2022-10-03T02:35:15.024Z,3.03
2022-10-03T02:38:10.045Z,2.80
2022-10-03T02:40:47.436Z,2.70
2022-10-03T02:43:33.105Z,2.73
2022-10-03T02:46:06.302Z,2.90
2022-10-03T02:49:01.001Z,2.97
2022-10-03T02:51:46.396Z,2.87
2022-10-03T02:54:18.918Z,2.63
2022-10-03T02:57:04.265Z,2.10
2022-10-03T03:00:04.610Z,2.40
2022-10-03T03:02:58.859Z,2.20
2022-10-03T03:05:40.488Z,2.30
2022-10-03T03:08:36.805Z,2.60
2022-10-03T03:11:16.244Z,1.93
2022-10-03T03:14:01.345Z,2.03
2022-10-03T03:17:05.104Z,1.70
2022-10-03T03:19:53.406Z,1.97
2022-10-03T03:23:17.533Z,2.07
2022-10-03T03:25:50.616Z,1.80
2022-10-03T03:28:55.459Z,2.20
2022-10-03T03:31:46.884Z,1.70
2022-10-03T03:34:25.472Z,2.03
2022-10-03T03:36:58.259Z,1.50
2022-10-03T03:39:57.205Z,1.60
2022-10-03T03:43:11.009Z,1.80
2022-10-03T03:45:47.447Z,1.70
2022-10-03T03:48:22.932Z,1.20
2022-10-03T03:51:06.902Z,1.67
2022-10-03T03:53:42.533Z,1.92
2022-10-03T03:56:38.323Z,1.47
2022-10-03T03:59:21.865Z,1.27
2022-10-03T04:01:59.144Z,1.60
2022-10-03T04:04:39.197Z,1.57
2022-10-03T04:07:43.498Z,1.30
2022-10-03T04:10:26.863Z,1.03
2022-10-03T04:13:19.485Z,1.20
2022-10-03T04:15:51.829Z,1.40
2022-10-03T04:18:58.348Z,1.33
2022-10-03T04:22:02.589Z,1.40
2022-10-03T04:24:59.914Z,1.03
2022-10-03T04:27:41.395Z,1.60
2022-10-03T04:30:20.563Z,1.50
2022-10-03T04:32:47.143Z,1.27
2022-10-03T04:35:41.492Z,1.33
2022-10-03T04:38:23.487Z,1.50
2022-10-03T04:41:23.492Z,1.40
2022-10-03T04:44:02.343Z,1.33
2022-10-03T04:46:56.389Z,1.20
2022-10-03T04:49:29.020Z,1.20
2022-10-03T04:52:04.512Z,1.43
2022-10-03T04:54:58.907Z,1.90
2022-10-03T04:57:36.905Z,1.50
2022-10-03T05:00:04.628Z,1.37
2022-10-03T05:02:54.752Z,1.93
2022-10-03T05:05:29.829Z,1.27
2022-10-03T05:08:06.156Z,1.77
2022-10-03T05:11:16.550Z,2.10
2022-10-03T05:13:53.776Z,2.33
2022-10-03T05:16:31.526Z,1.80
2022-10-03T05:19:19.915Z,2.60
2022-10-03T05:21:56.527Z,2.23
2022-10-03T05:25:11.784Z,1.50
2022-10-03T05:28:12.085Z,2.40
2022-10-03T05:30:54.120Z,2.10
2022-10-03T05:33:32.770Z,2.03
2022-10-03T05:36:19.690Z,2.00
2022-10-03T05:39:05.185Z,1.40
2022-10-03T05:41:35.564Z,1.90
2022-10-03T05:44:06.915Z,2.00
2022-10-03T05:46:58.846Z,2.70
2022-10-03T05:49:38.884Z,1.90
2022-10-03T05:52:21.795Z,1.50
2022-10-03T05:55:13.217Z,1.80
2022-10-03T05:57:53.033Z,2.27
2022-10-03T06:00:31.105Z,1.67
2022-10-03T06:03:24.117Z,4.03
2022-10-03T06:06:14.080Z,2.23
2022-10-03T06:08:49.803Z,1.87
2022-10-03T06:11:21.130Z,1.40
2022-10-03T06:13:53.943Z,1.43
2022-10-03T06:16:32.399Z,1.93
2022-10-03T06:19:23.494Z,1.53
2022-10-03T06:22:08.287Z,1.20
2022-10-03T06:24:59.902Z,2.10
2022-10-03T06:27:49.713Z,2.70
2022-10-03T06:30:55.371Z,7.63
2022-10-03T06:33:41.238Z,3.23
2022-10-03T06:36:41.874Z,4.73
2022-10-03T06:39:46.276Z,5.90
2022-10-03T06:42:37.568Z,3.17
2022-10-03T06:45:37.860Z,3.07
2022-10-03T06:48:39.872Z,2.80
2022-10-03T06:51:41.125Z,2.67
2022-10-03T06:54:42.262Z,2.30
2022-10-03T06:57:42.616Z,2.50
2022-10-03T07:00:22.232Z,2.93
2022-10-03T07:03:14.943Z,2.50
2022-10-03T07:06:03.098Z,4.93
2022-10-03T07:09:01.772Z,3.40
2022-10-03T07:11:55.812Z,3.20
2022-10-03T07:14:55.364Z,2.70
2022-10-03T07:17:35.063Z,4.00
2022-10-03T07:20:26.959Z,2.90
2022-10-03T07:23:19.727Z,7.43
2022-10-03T07:25:55.754Z,3.77
2022-10-03T07:28:48.457Z,2.80
2022-10-03T07:31:18.363Z,4.03
2022-10-03T07:34:03.897Z,3.40
2022-10-03T07:36:50.177Z,5.23
2022-10-03T07:39:23.111Z,3.83
2022-10-03T07:42:08.702Z,5.57
2022-10-03T07:44:57.073Z,6.13
2022-10-03T07:47:26.787Z,7.00
2022-10-03T07:50:31.148Z,6.83
2022-10-03T07:53:01.031Z,6.80
2022-10-03T07:55:39.492Z,7.87
2022-10-03T07:58:30.734Z,7.90
2022-10-03T08:01:38.562Z,7.30
2022-10-03T08:04:33.279Z,9.20
2022-10-03T08:07:26.585Z,11.43
2022-10-03T08:09:54.264Z,6.87
2022-10-03T08:12:40.349Z,8.73
2022-10-03T08:15:22.037Z,10.47
2022-10-03T08:18:11.863Z,9.13
2022-10-03T08:20:52.650Z,8.07
2022-10-03T08:23:40.446Z,8.03
2022-10-03T08:26:26.058Z,9.50
2022-10-03T08:29:04.921Z,8.20
2022-10-03T08:31:47.537Z,6.97
2022-10-03T08:34:50.137Z,8.67
2022-10-03T08:37:50.700Z,9.40
2022-10-03T08:40:38.383Z,8.87
2022-10-03T08:43:35.785Z,8.63
2022-10-03T08:46:40.738Z,9.13
2022-10-03T08:49:30.797Z,9.83
2022-10-03T08:52:21.348Z,9.47
2022-10-03T08:54:57.312Z,9.20
2022-10-03T08:57:48.733Z,8.70
2022-10-03T09:00:24.111Z,8.43
2022-10-03T09:03:30.929Z,8.33
2022-10-03T09:06:19.776Z,9.80
2022-10-03T09:09:16.967Z,9.13
2022-10-03T09:12:11.341Z,8.52
2022-10-03T09:15:03.122Z,7.85
2022-10-03T09:17:41.665Z,7.93
2022-10-03T09:20:19.664Z,7.32
2022-10-03T09:22:58.208Z,6.97
2022-10-03T09:25:40.413Z,6.95
2022-10-03T09:28:26.074Z,10.85
2022-10-03T09:31:04.964Z,11.52
2022-10-03T09:33:45.821Z,5.10
2022-10-03T09:36:24.643Z,5.18
2022-10-03T09:39:21.897Z,4.55
2022-10-03T09:42:00.760Z,2.35
2022-10-03T09:44:43.418Z,1.98
2022-10-03T09:47:34.957Z,2.03
2022-10-03T09:50:29.863Z,2.13
2022-10-03T09:53:35.569Z,6.22
2022-10-03T09:56:25.815Z,2.80
2022-10-03T09:59:18.924Z,3.33
2022-10-03T10:01:58.031Z,2.60
2022-10-03T10:05:01.132Z,3.40
2022-10-03T10:07:42.964Z,3.20
2022-10-03T10:10:39.384Z,2.53
2022-10-03T10:13:49.805Z,3.10
2022-10-03T10:16:31.931Z,3.17
2022-10-03T10:19:08.131Z,2.63
2022-10-03T10:21:40.684Z,2.40
2022-10-03T10:24:30.548Z,2.40
2022-10-03T10:27:20.738Z,2.70
2022-10-03T10:30:16.401Z,2.60
2022-10-03T10:33:20.531Z,2.30
2022-10-03T10:36:10.255Z,2.05
2022-10-03T10:39:11.055Z,2.28
2022-10-03T10:41:43.506Z,2.40
2022-10-03T10:44:42.350Z,2.67
2022-10-03T10:47:30.862Z,2.63
2022-10-03T10:50:21.860Z,2.33
2022-10-03T10:53:26.335Z,2.30
2022-10-03T10:56:30.536Z,2.60
2022-10-03T10:59:12.359Z,2.83
2022-10-03T11:02:20.075Z,3.40
2022-10-03T11:05:03.025Z,2.80
2022-10-03T11:07:38.998Z,4.40
2022-10-03T11:10:52.407Z,6.38
2022-10-03T11:13:41.487Z,6.55
2022-10-03T11:16:27.267Z,3.17
2022-10-03T11:19:26.868Z,2.88
2022-10-03T11:21:56.724Z,2.58
2022-10-03T11:25:01.149Z,3.25
2022-10-03T11:27:42.926Z,2.58
2022-10-03T11:30:28.131Z,3.30
2022-10-03T11:33:16.688Z,3.08
2022-10-03T11:35:55.321Z,3.88
2022-10-03T11:38:24.719Z,10.20
2022-10-03T11:41:00.642Z,3.70
2022-10-03T11:43:48.545Z,3.22
2022-10-03T11:46:20.961Z,3.05
2022-10-03T11:48:59.433Z,3.20
2022-10-03T11:51:55.868Z,3.33
2022-10-03T11:54:32.373Z,4.47
2022-10-03T11:57:14.952Z,2.97
2022-10-03T11:59:53.751Z,2.75
2022-10-03T12:02:23.068Z,2.47
2022-10-03T12:05:14.652Z,5.60
2022-10-03T12:08:22.643Z,3.50
2022-10-03T12:10:52.398Z,2.80
2022-10-03T12:13:42.719Z,2.58
2022-10-03T12:16:32.359Z,3.35
2022-10-03T12:19:13.831Z,2.72
2022-10-03T12:22:02.305Z,2.40
2022-10-03T12:24:35.003Z,4.45
2022-10-03T12:27:29.948Z,2.60
2022-10-03T12:30:00.851Z,2.85
2022-10-03T12:32:52.456Z,1.95
2022-10-03T12:35:31.356Z,2.23
2022-10-03T12:38:13.082Z,1.93
2022-10-03T12:40:43.955Z,2.37
2022-10-03T12:43:38.883Z,2.00
2022-10-03T12:46:42.126Z,2.03
2022-10-03T12:49:20.641Z,2.30
2022-10-03T12:51:56.456Z,2.60
2022-10-03T12:54:31.952Z,1.67
2022-10-03T12:57:13.558Z,1.97
2022-10-03T12:59:45.484Z,1.90
2022-10-03T13:02:29.798Z,2.30
2022-10-03T13:05:17.078Z,2.00
2022-10-03T13:07:56.711Z,2.30
2022-10-03T13:10:34.050Z,2.30
2022-10-03T13:13:13.442Z,2.00
2022-10-03T13:16:04.338Z,2.30
2022-10-03T13:18:49.411Z,2.40
2022-10-03T13:21:44.422Z,2.53
2022-10-03T13:25:06.771Z,2.63
2022-10-03T13:27:46.693Z,2.50
2022-10-03T13:30:22.164Z,2.67
2022-10-03T13:33:17.929Z,2.23
2022-10-03T13:35:58.513Z,2.33
2022-10-03T13:38:51.222Z,2.17
2022-10-03T13:41:34.108Z,2.40
2022-10-03T13:44:04.463Z,2.37
2022-10-03T13:46:53.231Z,2.10
2022-10-03T13:49:25.554Z,2.03
2022-10-03T13:52:00.023Z,2.63
2022-10-03T13:54:54.759Z,2.10
2022-10-03T13:57:27.243Z,2.63
2022-10-03T14:00:21.271Z,2.23
2022-10-03T14:03:01.568Z,2.33
2022-10-03T14:05:55.643Z,2.60
2022-10-03T14:08:34.484Z,2.30
2022-10-03T14:11:01.034Z,2.77
2022-10-03T14:13:52.840Z,2.40
2022-10-03T14:16:31.469Z,2.70
2022-10-03T14:19:21.656Z,2.23
2022-10-03T14:21:48.293Z,2.37
2022-10-03T14:24:36.997Z,2.60
2022-10-03T14:27:06.842Z,2.20
2022-10-03T14:29:55.464Z,2.60
2022-10-03T14:32:48.691Z,2.70
2022-10-03T14:35:19.232Z,2.97
2022-10-03T14:37:57.691Z,2.30
2022-10-03T14:40:42.567Z,2.73
2022-10-03T14:43:24.503Z,2.50
2022-10-03T14:45:55.500Z,2.60
2022-10-03T14:48:27.942Z,2.70
2022-10-03T14:51:06.242Z,2.53
2022-10-03T14:53:33.402Z,2.67
2022-10-03T14:56:07.658Z,2.60
2022-10-03T14:58:43.868Z,2.20
2022-10-03T15:01:19.279Z,2.60
2022-10-03T15:04:06.220Z,2.27
2022-10-03T15:06:45.131Z,2.50
2022-10-03T15:09:24.135Z,2.13
2022-10-03T15:12:01.793Z,2.53
2022-10-03T15:14:32.812Z,2.83
2022-10-03T15:17:01.514Z,2.40
2022-10-03T15:19:37.680Z,2.33
2022-10-03T15:22:18.104Z,2.43
2022-10-03T15:24:46.774Z,2.10
2022-10-03T15:27:20.920Z,2.37
2022-10-03T15:29:54.104Z,2.70
2022-10-03T15:32:27.514Z,2.33
2022-10-03T15:35:01.246Z,2.20
2022-10-03T15:37:46.770Z,2.43
2022-10-03T15:40:34.863Z,2.50
2022-10-03T15:43:17.816Z,2.40
2022-10-03T15:45:44.742Z,2.50
2022-10-03T15:48:16.590Z,2.50
2022-10-03T15:50:50.689Z,2.43
2022-10-03T15:53:36.162Z,2.67
2022-10-03T15:56:15.081Z,2.40
2022-10-03T15:58:49.888Z,2.20
2022-10-03T16:01:24.509Z,2.70
2022-10-03T16:03:59.712Z,2.73
2022-10-03T16:07:04.262Z,2.70
2022-10-03T16:09:45.463Z,2.97
2022-10-03T16:12:52.308Z,2.60
2022-10-03T16:15:37.765Z,3.00
2022-10-03T16:18:11.550Z,3.67
2022-10-03T16:20:47.428Z,2.83
2022-10-03T16:23:21.486Z,2.90
2022-10-03T16:25:55.535Z,2.80
2022-10-03T16:28:30.204Z,3.13
2022-10-03T16:31:01.739Z,3.40
2022-10-03T16:33:55.864Z,3.10
2022-10-03T16:36:25.583Z,2.80
2022-10-03T16:38:56.422Z,3.10
2022-10-03T16:41:33.250Z,2.93
2022-10-03T16:44:19.401Z,3.50
2022-10-03T16:46:48.170Z,3.60
2022-10-03T16:49:52.714Z,3.57
2022-10-03T16:52:24.111Z,3.00
2022-10-03T16:55:01.252Z,3.67
2022-10-03T16:57:40.517Z,3.47
2022-10-03T17:00:15.702Z,4.10
2022-10-03T17:02:43.180Z,4.30
2022-10-03T17:05:15.014Z,4.40
2022-10-03T17:08:18.292Z,4.30
2022-10-03T17:10:55.923Z,4.37
2022-10-03T17:13:31.140Z,4.40
2022-10-03T17:16:06.027Z,4.73
2022-10-03T17:18:41.308Z,4.87
2022-10-03T17:21:28.866Z,4.77
2022-10-03T17:24:09.084Z,5.40
2022-10-03T17:26:42.664Z,5.23
2022-10-03T17:29:15.251Z,5.63
2022-10-03T17:31:48.949Z,5.70
2022-10-03T17:34:18.768Z,4.17
2022-10-03T17:36:56.901Z,4.40
2022-10-03T17:39:38.360Z,4.40
2022-10-03T17:42:18.807Z,4.67
2022-10-03T17:45:16.975Z,4.77
2022-10-03T17:47:56.160Z,4.57
2022-10-03T17:50:35.672Z,4.70
2022-10-03T17:53:04.057Z,4.60
2022-10-03T17:55:38.577Z,4.53
2022-10-03T17:58:14.336Z,4.70
2022-10-03T18:00:44.184Z,4.37
2022-10-03T18:03:21.636Z,4.50
2022-10-03T18:05:54.500Z,5.23
2022-10-03T18:08:31.486Z,4.70
2022-10-03T18:11:02.355Z,4.47
2022-10-03T18:13:38.495Z,5.00
2022-10-03T18:16:33.005Z,4.63
2022-10-03T18:19:27.888Z,4.70
2022-10-03T18:22:32.988Z,4.90
2022-10-03T18:26:08.358Z,5.23
2022-10-03T18:28:44.797Z,11.10
2022-10-03T18:31:22.195Z,7.40
2022-10-03T18:34:14.141Z,6.60
2022-10-03T18:36:47.937Z,7.90
2022-10-03T18:39:22.498Z,10.97
2022-10-03T18:41:54.357Z,33.00
2022-10-03T18:44:24.165Z,18.63
2022-10-03T18:47:07.111Z,10.80
2022-10-03T18:49:35.501Z,7.67
2022-10-03T18:52:11.707Z,4.80
2022-10-03T18:54:50.251Z,6.60
2022-10-03T18:57:33.703Z,8.57
2022-10-03T19:00:09.313Z,8.17
2022-10-03T19:02:48.244Z,8.73
2022-10-03T19:05:25.416Z,7.97
2022-10-03T19:08:21.169Z,4.70
2022-10-03T19:11:24.565Z,6.40
2022-10-03T19:13:54.102Z,5.83
2022-10-03T19:16:44.155Z,4.97
2022-10-03T19:19:29.675Z,5.97
2022-10-03T19:22:02.281Z,6.03
2022-10-03T19:24:56.690Z,7.33
2022-10-03T19:27:21.445Z,5.40
2022-10-03T19:29:51.028Z,4.80
2022-10-03T19:32:42.967Z,5.10
2022-10-03T19:35:12.716Z,5.37
2022-10-03T19:37:44.444Z,11.53
2022-10-03T19:40:32.986Z,7.00
2022-10-03T19:43:26.926Z,6.97
2022-10-03T19:46:13.083Z,4.93
2022-10-03T19:48:56.067Z,5.63
2022-10-03T19:51:26.001Z,5.10
2022-10-03T19:53:55.427Z,5.30
2022-10-03T19:56:24.729Z,5.43
2022-10-03T19:59:03.419Z,5.10
2022-10-03T20:01:50.427Z,5.10
2022-10-03T20:04:37.163Z,5.23
2022-10-03T20:07:15.618Z,5.87
2022-10-03T20:09:55.925Z,5.60
2022-10-03T20:12:27.934Z,6.27
2022-10-03T20:15:02.018Z,5.63
2022-10-03T20:17:30.500Z,5.80
2022-10-03T20:20:18.845Z,6.77
2022-10-03T20:22:46.122Z,6.33
2022-10-03T20:25:30.949Z,6.07
2022-10-03T20:28:01.089Z,5.90
2022-10-03T20:30:48.779Z,5.60
2022-10-03T20:33:34.761Z,5.70
2022-10-03T20:36:04.225Z,5.50
2022-10-03T20:38:30.786Z,5.43
2022-10-03T20:41:04.048Z,5.63
2022-10-03T20:43:41.917Z,5.47
2022-10-03T20:46:31.461Z,6.07
2022-10-03T20:49:30.627Z,6.10
2022-10-03T20:52:00.657Z,5.70
2022-10-03T20:54:47.857Z,5.73
2022-10-03T20:57:19.672Z,5.23
2022-10-03T20:59:56.043Z,4.57
2022-10-03T21:02:41.104Z,5.73
2022-10-03T21:05:35.360Z,5.23
2022-10-03T21:08:05.310Z,5.70
2022-10-03T21:10:36.570Z,5.53
2022-10-03T21:13:08.684Z,5.47
2022-10-03T21:15:59.467Z,5.53
2022-10-03T21:18:40.371Z,4.97
2022-10-03T21:21:42.145Z,6.20
2022-10-03T21:24:12.671Z,6.37
2022-10-03T21:27:01.425Z,6.20
2022-10-03T21:29:31.684Z,6.17
2022-10-03T21:32:25.391Z,6.27
2022-10-03T21:35:10.758Z,5.27
2022-10-03T21:37:50.584Z,5.43
2022-10-03T21:40:50.293Z,5.10
2022-10-03T21:43:52.469Z,5.67
2022-10-03T21:46:43.226Z,5.30
2022-10-03T21:49:37.104Z,5.13
2022-10-03T21:52:09.605Z,5.67
2022-10-03T21:54:57.932Z,5.53
2022-10-03T21:57:41.854Z,5.33
2022-10-03T22:00:17.996Z,5.00
2022-10-03T22:02:56.783Z,5.57
2022-10-03T22:05:48.687Z,5.70
2022-10-03T22:08:23.277Z,5.60
2022-10-03T22:10:58.872Z,4.60
2022-10-03T22:13:30.361Z,5.30
2022-10-03T22:16:08.767Z,5.10
2022-10-03T22:19:01.623Z,5.63
2022-10-03T22:21:41.081Z,5.60
2022-10-03T22:24:29.280Z,5.20
2022-10-03T22:27:24.245Z,5.13
2022-10-03T22:29:50.808Z,4.97
2022-10-03T22:32:38.305Z,5.03
2022-10-03T22:35:16.625Z,4.93
2022-10-03T22:37:43.302Z,5.20
2022-10-03T22:40:10.437Z,5.17
2022-10-03T22:42:47.620Z,5.40
2022-10-03T22:45:18.876Z,5.40
2022-10-03T22:47:54.279Z,5.63
2022-10-03T22:50:28.152Z,5.47
2022-10-03T22:52:56.149Z,5.30
2022-10-03T22:55:25.669Z,6.10
2022-10-03T22:57:55.148Z,5.43
2022-10-03T23:00:24.806Z,5.27
2022-10-03T23:03:10.512Z,5.07
2022-10-03T23:05:58.871Z,5.33
2022-10-03T23:09:04.074Z,6.00
2022-10-03T23:11:33.635Z,6.07
2022-10-03T23:14:17.315Z,6.50
2022-10-03T23:17:01.076Z,6.17
2022-10-03T23:20:01.421Z,5.97
2022-10-03T23:22:31.058Z,5.80
2022-10-03T23:25:16.871Z,6.17
2022-10-03T23:28:28.865Z,6.10
2022-10-03T23:30:55.752Z,6.40
2022-10-03T23:33:32.402Z,6.27
2022-10-03T23:36:21.383Z,6.33
2022-10-03T23:38:47.936Z,6.43
2022-10-03T23:41:43.121Z,6.20
2022-10-03T23:44:58.157Z,5.93
2022-10-03T23:47:32.603Z,6.30
2022-10-03T23:50:03.724Z,7.00
2022-10-03T23:52:36.412Z,6.33
2022-10-03T23:55:06.775Z,6.13
2022-10-03T23:57:41.429Z,5.77
